sensor_id;sensor_type;location;lat;lon;timestamp;temperature;humidity
54429;DHT22;40337;52.978;6.310;2023-08-06T00:01:50;14.80;99.90
54429;DHT22;40337;52.978;6.310;2023-08-06T00:04:16;14.80;99.90
54429;DHT22;40337;52.978;6.310;2023-08-06T00:06:42;14.80;99.90
54429;DHT22;40337;52.978;6.310;2023-08-06T00:09:07;14.80;99.90
54429;DHT22;40337;52.978;6.310;2023-08-06T00:11:33;14.70;99.90
54429;DHT22;40337;52.978;6.310;2023-08-06T00:13:59;14.70;99.90
54429;DHT22;40337;52.978;6.310;2023-08-06T00:16:25;14.70;99.90
54429;DHT22;40337;52.978;6.310;2023-08-06T00:18:50;14.80;99.90
54429;DHT22;40337;52.978;6.310;2023-08-06T00:21:16;14.80;99.90
54429;DHT22;40337;52.978;6.310;2023-08-06T00:23:41;14.80;99.90
54429;DHT22;40337;52.978;6.310;2023-08-06T00:26:07;14.80;99.90
54429;DHT22;40337;52.978;6.310;2023-08-06T00:28:33;14.80;99.90
54429;DHT22;40337;52.978;6.310;2023-08-06T00:30:58;14.70;99.90
54429;DHT22;40337;52.978;6.310;2023-08-06T00:33:24;14.70;99.90
54429;DHT22;40337;52.978;6.310;2023-08-06T00:35:50;14.70;99.90
54429;DHT22;40337;52.978;6.310;2023-08-06T00:38:15;14.70;99.90
54429;DHT22;40337;52.978;6.310;2023-08-06T00:40:41;14.70;99.90
54429;DHT22;40337;52.978;6.310;2023-08-06T00:43:07;14.70;99.90
54429;DHT22;40337;52.978;6.310;2023-08-06T00:45:36;14.80;99.90
54429;DHT22;40337;52.978;6.310;2023-08-06T00:48:04;14.70;99.90
54429;DHT22;40337;52.978;6.310;2023-08-06T00:50:30;14.70;99.90
54429;DHT22;40337;52.978;6.310;2023-08-06T00:52:56;14.70;99.90
54429;DHT22;40337;52.978;6.310;2023-08-06T00:55:22;14.70;99.90
54429;DHT22;40337;52.978;6.310;2023-08-06T00:57:48;14.70;99.90
54429;DHT22;40337;52.978;6.310;2023-08-06T01:00:13;14.70;99.90
54429;DHT22;40337;52.978;6.310;2023-08-06T01:02:39;14.70;99.90
54429;DHT22;40337;52.978;6.310;2023-08-06T01:05:05;14.60;99.90
54429;DHT22;40337;52.978;6.310;2023-08-06T01:08:49;14.70;99.90
54429;DHT22;40337;52.978;6.310;2023-08-06T01:16:05;14.60;99.90
54429;DHT22;40337;52.978;6.310;2023-08-06T01:18:32;14.60;99.90
54429;DHT22;40337;52.978;6.310;2023-08-06T01:20:57;14.60;99.90
54429;DHT22;40337;52.978;6.310;2023-08-06T01:23:23;14.60;99.90
54429;DHT22;40337;52.978;6.310;2023-08-06T01:26:10;14.60;99.90
54429;DHT22;40337;52.978;6.310;2023-08-06T01:31:27;14.70;99.90
54429;DHT22;40337;52.978;6.310;2023-08-06T01:33:55;14.60;99.90
54429;DHT22;40337;52.978;6.310;2023-08-06T01:36:22;14.60;99.90
54429;DHT22;40337;52.978;6.310;2023-08-06T01:38:48;14.60;99.90
54429;DHT22;40337;52.978;6.310;2023-08-06T01:41:14;14.60;99.90
54429;DHT22;40337;52.978;6.310;2023-08-06T01:43:39;14.60;99.90
54429;DHT22;40337;52.978;6.310;2023-08-06T01:46:05;14.60;99.90
54429;DHT22;40337;52.978;6.310;2023-08-06T01:48:30;14.60;99.90
54429;DHT22;40337;52.978;6.310;2023-08-06T01:50:56;14.60;99.90
54429;DHT22;40337;52.978;6.310;2023-08-06T01:53:21;14.60;99.90
54429;DHT22;40337;52.978;6.310;2023-08-06T01:55:50;14.50;99.90
54429;DHT22;40337;52.978;6.310;2023-08-06T01:58:16;14.50;99.90
54429;DHT22;40337;52.978;6.310;2023-08-06T02:00:41;14.60;99.90
54429;DHT22;40337;52.978;6.310;2023-08-06T02:03:07;14.60;99.90
54429;DHT22;40337;52.978;6.310;2023-08-06T02:05:33;14.60;99.90
54429;DHT22;40337;52.978;6.310;2023-08-06T02:07:58;14.60;99.90
54429;DHT22;40337;52.978;6.310;2023-08-06T02:10:24;14.60;99.90
54429;DHT22;40337;52.978;6.310;2023-08-06T02:12:49;14.60;99.90
54429;DHT22;40337;52.978;6.310;2023-08-06T02:15:15;14.60;99.90
54429;DHT22;40337;52.978;6.310;2023-08-06T02:17:40;14.60;99.90
54429;DHT22;40337;52.978;6.310;2023-08-06T02:20:06;14.60;99.90
54429;DHT22;40337;52.978;6.310;2023-08-06T02:22:32;14.60;99.90
54429;DHT22;40337;52.978;6.310;2023-08-06T02:24:58;14.60;99.90
54429;DHT22;40337;52.978;6.310;2023-08-06T02:27:24;14.60;99.90
54429;DHT22;40337;52.978;6.310;2023-08-06T02:29:49;14.60;99.90
54429;DHT22;40337;52.978;6.310;2023-08-06T02:32:15;14.60;99.90
54429;DHT22;40337;52.978;6.310;2023-08-06T02:34:41;14.60;99.90
54429;DHT22;40337;52.978;6.310;2023-08-06T02:37:06;14.60;99.90
54429;DHT22;40337;52.978;6.310;2023-08-06T02:39:32;14.50;99.90
54429;DHT22;40337;52.978;6.310;2023-08-06T02:41:59;14.50;99.90
54429;DHT22;40337;52.978;6.310;2023-08-06T02:44:27;14.50;99.90
54429;DHT22;40337;52.978;6.310;2023-08-06T02:46:53;14.50;99.90
54429;DHT22;40337;52.978;6.310;2023-08-06T02:49:18;14.50;99.90
54429;DHT22;40337;52.978;6.310;2023-08-06T02:51:47;14.50;99.90
54429;DHT22;40337;52.978;6.310;2023-08-06T02:54:12;14.50;99.90
54429;DHT22;40337;52.978;6.310;2023-08-06T02:56:38;14.40;99.90
54429;DHT22;40337;52.978;6.310;2023-08-06T02:59:03;14.40;99.90
54429;DHT22;40337;52.978;6.310;2023-08-06T03:01:29;14.40;99.90
54429;DHT22;40337;52.978;6.310;2023-08-06T03:03:55;14.40;99.90
54429;DHT22;40337;52.978;6.310;2023-08-06T03:06:20;14.40;99.90
54429;DHT22;40337;52.978;6.310;2023-08-06T03:08:46;14.30;99.90
54429;DHT22;40337;52.978;6.310;2023-08-06T03:11:11;14.40;99.90
54429;DHT22;40337;52.978;6.310;2023-08-06T03:13:37;14.40;99.90
54429;DHT22;40337;52.978;6.310;2023-08-06T03:16:03;14.30;99.90
54429;DHT22;40337;52.978;6.310;2023-08-06T03:18:28;14.40;99.90
54429;DHT22;40337;52.978;6.310;2023-08-06T03:20:54;14.40;99.90
54429;DHT22;40337;52.978;6.310;2023-08-06T03:23:20;14.30;99.90
54429;DHT22;40337;52.978;6.310;2023-08-06T03:25:46;14.40;99.90
54429;DHT22;40337;52.978;6.310;2023-08-06T03:28:12;14.40;99.90
54429;DHT22;40337;52.978;6.310;2023-08-06T03:30:38;14.40;99.90
54429;DHT22;40337;52.978;6.310;2023-08-06T03:33:04;14.40;99.90
54429;DHT22;40337;52.978;6.310;2023-08-06T03:35:29;14.40;99.90
54429;DHT22;40337;52.978;6.310;2023-08-06T03:37:55;14.40;99.90
54429;DHT22;40337;52.978;6.310;2023-08-06T03:40:21;14.40;99.90
54429;DHT22;40337;52.978;6.310;2023-08-06T03:42:46;14.40;99.90
54429;DHT22;40337;52.978;6.310;2023-08-06T03:45:12;14.40;99.90
54429;DHT22;40337;52.978;6.310;2023-08-06T03:47:37;14.40;99.90
54429;DHT22;40337;52.978;6.310;2023-08-06T03:50:03;14.40;99.90
54429;DHT22;40337;52.978;6.310;2023-08-06T03:52:29;14.40;99.90
54429;DHT22;40337;52.978;6.310;2023-08-06T03:54:54;14.50;99.90
54429;DHT22;40337;52.978;6.310;2023-08-06T03:57:20;14.50;99.90
54429;DHT22;40337;52.978;6.310;2023-08-06T03:59:45;14.40;99.90
54429;DHT22;40337;52.978;6.310;2023-08-06T04:02:11;14.50;99.90
54429;DHT22;40337;52.978;6.310;2023-08-06T04:04:36;14.50;99.90
54429;DHT22;40337;52.978;6.310;2023-08-06T04:07:02;14.50;99.90
54429;DHT22;40337;52.978;6.310;2023-08-06T04:09:28;14.50;99.90
54429;DHT22;40337;52.978;6.310;2023-08-06T04:11:54;14.50;99.90
54429;DHT22;40337;52.978;6.310;2023-08-06T04:14:19;14.50;99.90
54429;DHT22;40337;52.978;6.310;2023-08-06T04:16:45;14.50;99.90
54429;DHT22;40337;52.978;6.310;2023-08-06T04:19:10;14.50;99.90
54429;DHT22;40337;52.978;6.310;2023-08-06T04:21:36;14.50;99.90
54429;DHT22;40337;52.978;6.310;2023-08-06T04:24:02;14.50;99.90
54429;DHT22;40337;52.978;6.310;2023-08-06T04:26:27;14.50;99.90
54429;DHT22;40337;52.978;6.310;2023-08-06T04:28:53;14.60;99.90
54429;DHT22;40337;52.978;6.310;2023-08-06T04:31:18;14.50;99.90
54429;DHT22;40337;52.978;6.310;2023-08-06T04:33:44;14.60;99.90
54429;DHT22;40337;52.978;6.310;2023-08-06T04:36:09;14.60;99.90
54429;DHT22;40337;52.978;6.310;2023-08-06T04:38:35;14.60;99.90
54429;DHT22;40337;52.978;6.310;2023-08-06T04:41:02;14.60;99.90
54429;DHT22;40337;52.978;6.310;2023-08-06T04:43:28;14.60;99.90
54429;DHT22;40337;52.978;6.310;2023-08-06T04:45:55;14.70;99.90
54429;DHT22;40337;52.978;6.310;2023-08-06T04:48:21;14.70;99.90
54429;DHT22;40337;52.978;6.310;2023-08-06T04:50:48;14.70;99.90
54429;DHT22;40337;52.978;6.310;2023-08-06T04:53:14;14.70;99.90
54429;DHT22;40337;52.978;6.310;2023-08-06T04:55:40;14.70;99.90
54429;DHT22;40337;52.978;6.310;2023-08-06T04:58:06;14.70;99.90
54429;DHT22;40337;52.978;6.310;2023-08-06T05:00:32;14.70;99.90
54429;DHT22;40337;52.978;6.310;2023-08-06T05:03:00;14.70;99.90
54429;DHT22;40337;52.978;6.310;2023-08-06T05:05:27;14.70;99.90
54429;DHT22;40337;52.978;6.310;2023-08-06T05:07:54;14.70;99.90
54429;DHT22;40337;52.978;6.310;2023-08-06T05:10:20;14.80;99.90
54429;DHT22;40337;52.978;6.310;2023-08-06T05:12:45;14.80;99.90
54429;DHT22;40337;52.978;6.310;2023-08-06T05:15:11;14.80;99.90
54429;DHT22;40337;52.978;6.310;2023-08-06T05:17:36;14.80;99.90
54429;DHT22;40337;52.978;6.310;2023-08-06T05:20:02;14.90;99.90
54429;DHT22;40337;52.978;6.310;2023-08-06T05:22:28;14.90;99.90
54429;DHT22;40337;52.978;6.310;2023-08-06T05:24:54;14.90;99.90
54429;DHT22;40337;52.978;6.310;2023-08-06T05:27:19;14.90;99.90
54429;DHT22;40337;52.978;6.310;2023-08-06T05:29:45;14.90;99.90
54429;DHT22;40337;52.978;6.310;2023-08-06T05:32:11;15.00;99.90
54429;DHT22;40337;52.978;6.310;2023-08-06T05:34:36;15.00;99.90
54429;DHT22;40337;52.978;6.310;2023-08-06T05:37:03;15.00;99.90
54429;DHT22;40337;52.978;6.310;2023-08-06T05:39:28;15.10;99.90
54429;DHT22;40337;52.978;6.310;2023-08-06T05:41:54;15.00;99.90
54429;DHT22;40337;52.978;6.310;2023-08-06T05:44:21;15.10;99.90
54429;DHT22;40337;52.978;6.310;2023-08-06T05:46:46;15.20;99.90
54429;DHT22;40337;52.978;6.310;2023-08-06T05:49:12;15.20;99.90
54429;DHT22;40337;52.978;6.310;2023-08-06T05:51:39;15.20;99.90
54429;DHT22;40337;52.978;6.310;2023-08-06T05:54:04;15.30;99.90
54429;DHT22;40337;52.978;6.310;2023-08-06T05:56:30;15.30;99.90
54429;DHT22;40337;52.978;6.310;2023-08-06T05:58:55;15.30;99.90
54429;DHT22;40337;52.978;6.310;2023-08-06T06:01:21;15.30;99.90
54429;DHT22;40337;52.978;6.310;2023-08-06T06:03:47;15.30;99.90
54429;DHT22;40337;52.978;6.310;2023-08-06T06:06:12;15.30;99.90
54429;DHT22;40337;52.978;6.310;2023-08-06T06:08:38;15.30;99.90
54429;DHT22;40337;52.978;6.310;2023-08-06T06:11:03;15.40;99.90
54429;DHT22;40337;52.978;6.310;2023-08-06T06:13:29;15.40;99.90
54429;DHT22;40337;52.978;6.310;2023-08-06T06:15:55;15.50;99.90
54429;DHT22;40337;52.978;6.310;2023-08-06T06:18:21;15.50;99.90
54429;DHT22;40337;52.978;6.310;2023-08-06T06:20:47;15.50;99.90
54429;DHT22;40337;52.978;6.310;2023-08-06T06:23:13;15.60;99.90
54429;DHT22;40337;52.978;6.310;2023-08-06T06:25:51;15.60;99.90
54429;DHT22;40337;52.978;6.310;2023-08-06T06:28:17;15.70;99.90
54429;DHT22;40337;52.978;6.310;2023-08-06T06:30:43;15.80;99.90
54429;DHT22;40337;52.978;6.310;2023-08-06T06:33:09;15.90;99.90
54429;DHT22;40337;52.978;6.310;2023-08-06T06:35:34;16.10;99.90
54429;DHT22;40337;52.978;6.310;2023-08-06T06:38:00;16.30;99.90
54429;DHT22;40337;52.978;6.310;2023-08-06T06:40:26;16.40;99.90
54429;DHT22;40337;52.978;6.310;2023-08-06T06:42:51;16.50;99.90
54429;DHT22;40337;52.978;6.310;2023-08-06T06:45:17;16.60;99.90
54429;DHT22;40337;52.978;6.310;2023-08-06T06:47:42;16.60;99.90
54429;DHT22;40337;52.978;6.310;2023-08-06T06:50:08;16.60;99.90
54429;DHT22;40337;52.978;6.310;2023-08-06T06:52:34;16.60;99.90
54429;DHT22;40337;52.978;6.310;2023-08-06T06:55:00;16.50;99.90
54429;DHT22;40337;52.978;6.310;2023-08-06T06:57:26;16.60;99.90
54429;DHT22;40337;52.978;6.310;2023-08-06T06:59:51;16.60;99.90
54429;DHT22;40337;52.978;6.310;2023-08-06T07:02:17;16.60;99.90
54429;DHT22;40337;52.978;6.310;2023-08-06T07:04:42;16.60;99.90
54429;DHT22;40337;52.978;6.310;2023-08-06T07:07:08;16.60;99.90
54429;DHT22;40337;52.978;6.310;2023-08-06T07:09:33;16.60;99.90
54429;DHT22;40337;52.978;6.310;2023-08-06T07:11:59;16.60;99.90
54429;DHT22;40337;52.978;6.310;2023-08-06T07:14:25;16.70;99.90
54429;DHT22;40337;52.978;6.310;2023-08-06T07:16:52;16.70;99.90
54429;DHT22;40337;52.978;6.310;2023-08-06T07:19:17;16.70;99.90
54429;DHT22;40337;52.978;6.310;2023-08-06T07:21:43;16.70;99.90
54429;DHT22;40337;52.978;6.310;2023-08-06T07:24:09;16.70;99.90
54429;DHT22;40337;52.978;6.310;2023-08-06T07:26:34;16.80;99.90
54429;DHT22;40337;52.978;6.310;2023-08-06T07:29:00;16.80;99.90
54429;DHT22;40337;52.978;6.310;2023-08-06T07:31:26;16.80;99.90
54429;DHT22;40337;52.978;6.310;2023-08-06T07:33:51;16.80;99.90
54429;DHT22;40337;52.978;6.310;2023-08-06T07:36:18;16.80;99.90
54429;DHT22;40337;52.978;6.310;2023-08-06T07:38:43;16.80;99.90
54429;DHT22;40337;52.978;6.310;2023-08-06T07:41:09;16.90;99.90
54429;DHT22;40337;52.978;6.310;2023-08-06T07:43:35;16.90;99.90
54429;DHT22;40337;52.978;6.310;2023-08-06T07:46:01;17.00;99.90
54429;DHT22;40337;52.978;6.310;2023-08-06T07:48:27;17.00;99.90
54429;DHT22;40337;52.978;6.310;2023-08-06T07:50:54;17.00;99.90
54429;DHT22;40337;52.978;6.310;2023-08-06T07:53:21;17.10;99.90
54429;DHT22;40337;52.978;6.310;2023-08-06T07:55:51;17.10;99.90
54429;DHT22;40337;52.978;6.310;2023-08-06T07:58:17;17.20;99.90
54429;DHT22;40337;52.978;6.310;2023-08-06T08:00:43;17.20;99.90
54429;DHT22;40337;52.978;6.310;2023-08-06T08:03:14;17.30;99.90
54429;DHT22;40337;52.978;6.310;2023-08-06T08:05:40;17.40;99.90
54429;DHT22;40337;52.978;6.310;2023-08-06T08:08:06;17.40;99.90
54429;DHT22;40337;52.978;6.310;2023-08-06T08:10:32;17.50;99.90
54429;DHT22;40337;52.978;6.310;2023-08-06T08:12:58;17.70;99.90
54429;DHT22;40337;52.978;6.310;2023-08-06T08:15:24;17.70;99.90
54429;DHT22;40337;52.978;6.310;2023-08-06T08:17:51;17.90;99.90
54429;DHT22;40337;52.978;6.310;2023-08-06T08:20:17;17.90;99.90
54429;DHT22;40337;52.978;6.310;2023-08-06T08:22:43;18.00;99.90
54429;DHT22;40337;52.978;6.310;2023-08-06T08:25:09;18.00;99.90
54429;DHT22;40337;52.978;6.310;2023-08-06T08:27:34;18.10;99.90
54429;DHT22;40337;52.978;6.310;2023-08-06T08:30:00;18.10;99.90
54429;DHT22;40337;52.978;6.310;2023-08-06T08:32:25;18.10;99.90
54429;DHT22;40337;52.978;6.310;2023-08-06T08:34:51;18.20;99.90
54429;DHT22;40337;52.978;6.310;2023-08-06T08:37:16;18.20;99.90
54429;DHT22;40337;52.978;6.310;2023-08-06T08:39:42;18.30;99.90
54429;DHT22;40337;52.978;6.310;2023-08-06T08:42:09;18.40;99.90
54429;DHT22;40337;52.978;6.310;2023-08-06T08:44:35;18.40;99.90
54429;DHT22;40337;52.978;6.310;2023-08-06T08:47:06;18.50;99.90
54429;DHT22;40337;52.978;6.310;2023-08-06T08:49:32;18.60;99.90
54429;DHT22;40337;52.978;6.310;2023-08-06T08:51:59;18.70;99.90
54429;DHT22;40337;52.978;6.310;2023-08-06T08:54:27;18.90;99.90
54429;DHT22;40337;52.978;6.310;2023-08-06T08:56:53;18.90;99.90
54429;DHT22;40337;52.978;6.310;2023-08-06T08:59:20;19.00;99.90
54429;DHT22;40337;52.978;6.310;2023-08-06T09:01:47;19.10;99.90
54429;DHT22;40337;52.978;6.310;2023-08-06T09:04:16;19.30;99.90
54429;DHT22;40337;52.978;6.310;2023-08-06T09:06:42;19.50;99.90
54429;DHT22;40337;52.978;6.310;2023-08-06T09:09:11;19.70;99.90
54429;DHT22;40337;52.978;6.310;2023-08-06T09:11:43;19.90;99.90
54429;DHT22;40337;52.978;6.310;2023-08-06T09:14:10;20.00;99.90
54429;DHT22;40337;52.978;6.310;2023-08-06T09:16:36;20.00;99.90
54429;DHT22;40337;52.978;6.310;2023-08-06T09:19:12;20.30;99.90
54429;DHT22;40337;52.978;6.310;2023-08-06T09:21:42;20.60;99.90
54429;DHT22;40337;52.978;6.310;2023-08-06T09:24:12;21.10;99.90
54429;DHT22;40337;52.978;6.310;2023-08-06T09:26:41;21.20;99.90
54429;DHT22;40337;52.978;6.310;2023-08-06T09:29:09;21.20;99.90
54429;DHT22;40337;52.978;6.310;2023-08-06T09:31:57;21.10;99.90
54429;DHT22;40337;52.978;6.310;2023-08-06T09:34:23;21.00;99.90
54429;DHT22;40337;52.978;6.310;2023-08-06T09:36:51;21.60;99.90
54429;DHT22;40337;52.978;6.310;2023-08-06T09:39:18;21.80;99.90
54429;DHT22;40337;52.978;6.310;2023-08-06T09:41:44;21.80;99.90
54429;DHT22;40337;52.978;6.310;2023-08-06T09:44:19;21.80;99.90
54429;DHT22;40337;52.978;6.310;2023-08-06T09:47:03;21.80;99.90
54429;DHT22;40337;52.978;6.310;2023-08-06T09:51:58;21.30;99.90
54429;DHT22;40337;52.978;6.310;2023-08-06T09:54:26;21.10;99.90
54429;DHT22;40337;52.978;6.310;2023-08-06T09:56:53;20.80;99.90
54429;DHT22;40337;52.978;6.310;2023-08-06T09:59:19;20.60;99.90
54429;DHT22;40337;52.978;6.310;2023-08-06T10:01:45;20.60;99.90
54429;DHT22;40337;52.978;6.310;2023-08-06T10:04:13;21.00;99.90
54429;DHT22;40337;52.978;6.310;2023-08-06T10:06:42;21.10;99.90
54429;DHT22;40337;52.978;6.310;2023-08-06T10:09:08;21.00;99.90
54429;DHT22;40337;52.978;6.310;2023-08-06T10:11:36;21.20;99.90
54429;DHT22;40337;52.978;6.310;2023-08-06T10:14:20;21.40;99.90
54429;DHT22;40337;52.978;6.310;2023-08-06T10:16:47;21.60;99.90
54429;DHT22;40337;52.978;6.310;2023-08-06T10:19:13;21.70;99.90
54429;DHT22;40337;52.978;6.310;2023-08-06T10:21:41;21.70;99.90
54429;DHT22;40337;52.978;6.310;2023-08-06T10:24:13;21.90;99.90
54429;DHT22;40337;52.978;6.310;2023-08-06T10:26:40;21.80;99.90
54429;DHT22;40337;52.978;6.310;2023-08-06T10:29:37;21.70;99.90
54429;DHT22;40337;52.978;6.310;2023-08-06T10:32:03;21.40;99.90
54429;DHT22;40337;52.978;6.310;2023-08-06T10:34:58;21.20;99.90
54429;DHT22;40337;52.978;6.310;2023-08-06T10:37:35;21.00;99.90
54429;DHT22;40337;52.978;6.310;2023-08-06T10:40:01;20.80;99.90
54429;DHT22;40337;52.978;6.310;2023-08-06T10:42:28;20.70;99.90
54429;DHT22;40337;52.978;6.310;2023-08-06T10:45:16;20.50;99.90
54429;DHT22;40337;52.978;6.310;2023-08-06T10:47:43;20.40;99.90
54429;DHT22;40337;52.978;6.310;2023-08-06T10:50:12;20.30;99.90
54429;DHT22;40337;52.978;6.310;2023-08-06T10:52:39;20.30;99.90
54429;DHT22;40337;52.978;6.310;2023-08-06T10:55:05;20.30;99.90
54429;DHT22;40337;52.978;6.310;2023-08-06T10:57:31;20.20;99.90
54429;DHT22;40337;52.978;6.310;2023-08-06T10:59:56;20.20;99.90
54429;DHT22;40337;52.978;6.310;2023-08-06T11:02:22;20.30;99.90
54429;DHT22;40337;52.978;6.310;2023-08-06T11:04:48;20.20;99.90
54429;DHT22;40337;52.978;6.310;2023-08-06T11:07:14;20.20;99.90
54429;DHT22;40337;52.978;6.310;2023-08-06T11:09:39;20.30;99.90
54429;DHT22;40337;52.978;6.310;2023-08-06T11:12:11;20.30;99.90
54429;DHT22;40337;52.978;6.310;2023-08-06T11:14:37;20.30;99.90
54429;DHT22;40337;52.978;6.310;2023-08-06T11:17:05;20.30;99.90
54429;DHT22;40337;52.978;6.310;2023-08-06T11:19:30;20.40;99.90
54429;DHT22;40337;52.978;6.310;2023-08-06T11:21:56;20.40;99.90
54429;DHT22;40337;52.978;6.310;2023-08-06T11:24:24;20.50;99.90
54429;DHT22;40337;52.978;6.310;2023-08-06T11:26:49;20.70;99.90
54429;DHT22;40337;52.978;6.310;2023-08-06T11:29:15;20.90;99.90
54429;DHT22;40337;52.978;6.310;2023-08-06T11:31:41;21.00;99.90
54429;DHT22;40337;52.978;6.310;2023-08-06T11:34:07;21.10;99.90
54429;DHT22;40337;52.978;6.310;2023-08-06T11:36:33;21.10;99.90
54429;DHT22;40337;52.978;6.310;2023-08-06T11:39:00;21.10;99.90
54429;DHT22;40337;52.978;6.310;2023-08-06T11:41:28;21.10;99.90
54429;DHT22;40337;52.978;6.310;2023-08-06T11:43:54;21.00;99.90
54429;DHT22;40337;52.978;6.310;2023-08-06T11:46:19;20.90;99.90
54429;DHT22;40337;52.978;6.310;2023-08-06T11:48:55;20.80;99.90
54429;DHT22;40337;52.978;6.310;2023-08-06T11:51:27;20.70;99.90
54429;DHT22;40337;52.978;6.310;2023-08-06T11:53:56;20.70;99.90
54429;DHT22;40337;52.978;6.310;2023-08-06T11:56:22;20.70;99.90
54429;DHT22;40337;52.978;6.310;2023-08-06T11:58:48;20.80;99.90
54429;DHT22;40337;52.978;6.310;2023-08-06T12:01:14;20.80;99.90
54429;DHT22;40337;52.978;6.310;2023-08-06T12:03:40;20.80;99.90
54429;DHT22;40337;52.978;6.310;2023-08-06T12:06:06;20.80;99.90
54429;DHT22;40337;52.978;6.310;2023-08-06T12:08:33;20.80;99.90
54429;DHT22;40337;52.978;6.310;2023-08-06T12:10:58;20.90;99.90
54429;DHT22;40337;52.978;6.310;2023-08-06T12:13:24;20.90;99.90
54429;DHT22;40337;52.978;6.310;2023-08-06T12:15:50;20.90;99.90
54429;DHT22;40337;52.978;6.310;2023-08-06T12:18:18;20.90;99.90
54429;DHT22;40337;52.978;6.310;2023-08-06T12:20:43;20.80;99.90
54429;DHT22;40337;52.978;6.310;2023-08-06T12:23:09;20.80;99.90
54429;DHT22;40337;52.978;6.310;2023-08-06T12:25:35;20.80;99.90
54429;DHT22;40337;52.978;6.310;2023-08-06T12:28:00;20.80;99.90
54429;DHT22;40337;52.978;6.310;2023-08-06T12:30:26;20.80;99.90
54429;DHT22;40337;52.978;6.310;2023-08-06T12:32:52;20.70;99.90
54429;DHT22;40337;52.978;6.310;2023-08-06T12:35:17;20.70;99.90
54429;DHT22;40337;52.978;6.310;2023-08-06T12:37:43;20.70;99.90
54429;DHT22;40337;52.978;6.310;2023-08-06T12:40:09;20.70;99.90
54429;DHT22;40337;52.978;6.310;2023-08-06T12:42:35;20.70;99.90
54429;DHT22;40337;52.978;6.310;2023-08-06T12:45:01;20.70;99.90
54429;DHT22;40337;52.978;6.310;2023-08-06T12:47:26;20.70;99.90
54429;DHT22;40337;52.978;6.310;2023-08-06T12:49:52;20.70;99.90
54429;DHT22;40337;52.978;6.310;2023-08-06T12:52:17;20.80;99.90
54429;DHT22;40337;52.978;6.310;2023-08-06T12:54:45;20.70;99.90
54429;DHT22;40337;52.978;6.310;2023-08-06T12:57:11;20.70;99.90
54429;DHT22;40337;52.978;6.310;2023-08-06T12:59:37;20.60;99.90
54429;DHT22;40337;52.978;6.310;2023-08-06T13:02:03;20.60;99.90
54429;DHT22;40337;52.978;6.310;2023-08-06T13:04:28;20.50;99.90
54429;DHT22;40337;52.978;6.310;2023-08-06T13:06:54;20.50;99.90
54429;DHT22;40337;52.978;6.310;2023-08-06T13:09:19;20.50;99.90
54429;DHT22;40337;52.978;6.310;2023-08-06T13:11:45;20.50;99.90
54429;DHT22;40337;52.978;6.310;2023-08-06T13:14:13;20.60;99.90
54429;DHT22;40337;52.978;6.310;2023-08-06T13:16:40;20.60;99.90
54429;DHT22;40337;52.978;6.310;2023-08-06T13:19:06;20.60;99.90
54429;DHT22;40337;52.978;6.310;2023-08-06T13:24:15;20.60;99.90
54429;DHT22;40337;52.978;6.310;2023-08-06T13:26:40;20.60;99.90
54429;DHT22;40337;52.978;6.310;2023-08-06T13:29:06;20.70;99.90
54429;DHT22;40337;52.978;6.310;2023-08-06T13:31:32;20.80;99.90
54429;DHT22;40337;52.978;6.310;2023-08-06T13:33:58;20.90;99.90
54429;DHT22;40337;52.978;6.310;2023-08-06T13:36:27;21.00;99.90
54429;DHT22;40337;52.978;6.310;2023-08-06T13:38:53;21.10;99.90
54429;DHT22;40337;52.978;6.310;2023-08-06T13:41:19;21.10;99.90
54429;DHT22;40337;52.978;6.310;2023-08-06T13:43:45;21.10;99.90
54429;DHT22;40337;52.978;6.310;2023-08-06T13:46:11;21.10;99.90
54429;DHT22;40337;52.978;6.310;2023-08-06T13:48:42;21.10;99.90
54429;DHT22;40337;52.978;6.310;2023-08-06T13:51:08;21.00;99.90
54429;DHT22;40337;52.978;6.310;2023-08-06T13:53:33;21.10;99.90
54429;DHT22;40337;52.978;6.310;2023-08-06T13:55:59;21.20;99.90
54429;DHT22;40337;52.978;6.310;2023-08-06T13:58:24;21.60;99.90
54429;DHT22;40337;52.978;6.310;2023-08-06T14:00:52;21.90;99.90
54429;DHT22;40337;52.978;6.310;2023-08-06T14:03:18;22.30;99.90
54429;DHT22;40337;52.978;6.310;2023-08-06T14:05:44;22.70;99.90
54429;DHT22;40337;52.978;6.310;2023-08-06T14:08:10;22.70;99.90
54429;DHT22;40337;52.978;6.310;2023-08-06T14:10:35;22.80;99.90
54429;DHT22;40337;52.978;6.310;2023-08-06T14:13:01;22.80;99.90
54429;DHT22;40337;52.978;6.310;2023-08-06T14:15:26;22.60;99.90
54429;DHT22;40337;52.978;6.310;2023-08-06T14:17:52;22.60;99.90
54429;DHT22;40337;52.978;6.310;2023-08-06T14:20:17;22.40;99.90
54429;DHT22;40337;52.978;6.310;2023-08-06T14:22:43;22.30;99.90
54429;DHT22;40337;52.978;6.310;2023-08-06T14:25:08;22.00;99.90
54429;DHT22;40337;52.978;6.310;2023-08-06T14:27:34;21.80;99.90
54429;DHT22;40337;52.978;6.310;2023-08-06T14:30:00;21.50;99.90
54429;DHT22;40337;52.978;6.310;2023-08-06T14:32:26;21.30;99.90
54429;DHT22;40337;52.978;6.310;2023-08-06T14:34:51;21.10;99.90
54429;DHT22;40337;52.978;6.310;2023-08-06T14:37:17;21.20;99.90
54429;DHT22;40337;52.978;6.310;2023-08-06T14:39:43;21.20;99.90
54429;DHT22;40337;52.978;6.310;2023-08-06T14:42:08;21.30;99.90
54429;DHT22;40337;52.978;6.310;2023-08-06T14:44:34;21.20;99.90
54429;DHT22;40337;52.978;6.310;2023-08-06T14:46:59;21.20;99.90
54429;DHT22;40337;52.978;6.310;2023-08-06T14:49:25;21.30;99.90
54429;DHT22;40337;52.978;6.310;2023-08-06T14:51:51;21.20;99.90
54429;DHT22;40337;52.978;6.310;2023-08-06T14:54:16;21.20;99.90
54429;DHT22;40337;52.978;6.310;2023-08-06T14:56:42;21.10;99.90
54429;DHT22;40337;52.978;6.310;2023-08-06T14:59:07;21.20;99.90
54429;DHT22;40337;52.978;6.310;2023-08-06T15:01:33;21.40;99.90
54429;DHT22;40337;52.978;6.310;2023-08-06T15:03:58;21.40;99.90
54429;DHT22;40337;52.978;6.310;2023-08-06T15:06:24;21.40;99.90
54429;DHT22;40337;52.978;6.310;2023-08-06T15:08:49;21.30;99.90
54429;DHT22;40337;52.978;6.310;2023-08-06T15:11:15;21.30;99.90
54429;DHT22;40337;52.978;6.310;2023-08-06T15:13:41;21.40;99.90
54429;DHT22;40337;52.978;6.310;2023-08-06T15:16:06;21.30;99.90
54429;DHT22;40337;52.978;6.310;2023-08-06T15:18:32;21.30;99.90
54429;DHT22;40337;52.978;6.310;2023-08-06T15:20:57;21.30;99.90
54429;DHT22;40337;52.978;6.310;2023-08-06T15:23:24;21.20;99.90
54429;DHT22;40337;52.978;6.310;2023-08-06T15:25:50;21.10;99.90
54429;DHT22;40337;52.978;6.310;2023-08-06T15:28:15;21.10;99.90
54429;DHT22;40337;52.978;6.310;2023-08-06T15:30:49;21.10;99.90
54429;DHT22;40337;52.978;6.310;2023-08-06T15:33:15;21.00;99.90
54429;DHT22;40337;52.978;6.310;2023-08-06T15:35:40;20.90;99.90
54429;DHT22;40337;52.978;6.310;2023-08-06T15:38:06;20.80;99.90
54429;DHT22;40337;52.978;6.310;2023-08-06T15:40:31;20.70;99.90